createdAt,value
2023-02-18T00:00:57.829Z,996.16
2023-02-18T00:01:57.903Z,996.21
2023-02-18T00:02:57.939Z,996.16
2023-02-18T00:03:57.745Z,996.17
2023-02-18T00:04:57.735Z,996.17
2023-02-18T00:05:57.754Z,996.21
2023-02-18T00:06:57.714Z,996.13
2023-02-18T00:07:57.723Z,996.09
2023-02-18T00:08:57.674Z,996.14
2023-02-18T00:09:57.710Z,996.17
2023-02-18T00:10:57.694Z,996.11
2023-02-18T00:11:57.642Z,996.15
2023-02-18T00:12:57.640Z,996.05
2023-02-18T00:13:57.631Z,996.06
2023-02-18T00:14:57.637Z,996.05
2023-02-18T00:15:57.653Z,996.09
2023-02-18T00:16:57.574Z,996.09
2023-02-18T00:17:57.580Z,996.05
2023-02-18T00:18:57.569Z,996.11
2023-02-18T00:19:57.533Z,996.07
2023-02-18T00:20:57.605Z,996.08
2023-02-18T00:21:57.513Z,996.10
2023-02-18T00:22:57.508Z,996.14
2023-02-18T00:23:57.492Z,996.06
2023-02-18T00:24:57.522Z,996.08
2023-02-18T00:25:57.492Z,996.08
2023-02-18T00:26:57.450Z,996.10
2023-02-18T00:27:57.448Z,996.00
2023-02-18T00:28:57.434Z,996.08
2023-02-18T00:29:57.497Z,996.11
2023-02-18T00:30:57.494Z,996.14
2023-02-18T00:31:57.620Z,996.07
2023-02-18T00:32:57.384Z,996.05
2023-02-18T00:33:57.360Z,996.15
2023-02-18T00:34:57.343Z,996.10
2023-02-18T00:35:57.382Z,996.01
2023-02-18T00:36:57.310Z,996.02
2023-02-18T00:37:57.302Z,996.05
2023-02-18T00:38:57.327Z,996.04
2023-02-18T00:39:57.279Z,996.10
2023-02-18T00:40:57.310Z,996.02
2023-02-18T00:41:57.240Z,996.04
2023-02-18T00:42:57.226Z,996.01
2023-02-18T00:43:57.227Z,996.01
2023-02-18T00:44:57.209Z,995.99
2023-02-18T00:45:57.301Z,996.08
2023-02-18T00:46:57.178Z,996.05
2023-02-18T00:47:57.161Z,995.95
2023-02-18T00:48:57.153Z,995.88
2023-02-18T00:49:57.191Z,995.93
2023-02-18T00:50:57.153Z,995.85
2023-02-18T00:51:57.118Z,995.81
2023-02-18T00:52:57.110Z,995.80
2023-02-18T00:53:57.121Z,995.77
2023-02-18T00:54:57.087Z,995.83
2023-02-18T00:55:57.089Z,995.77
2023-02-18T00:56:57.069Z,995.82
2023-02-18T00:57:57.094Z,995.80
2023-02-18T00:58:57.020Z,995.78
2023-02-18T00:59:57.022Z,995.83
2023-02-18T01:00:57.036Z,995.89
2023-02-18T01:01:57.026Z,995.86
2023-02-18T01:02:56.983Z,995.80
2023-02-18T01:03:56.973Z,995.82
2023-02-18T01:04:56.987Z,995.83
2023-02-18T01:05:56.970Z,995.84
2023-02-18T01:06:56.936Z,995.87
2023-02-18T01:07:56.923Z,995.85
2023-02-18T01:09:01.013Z,995.83
2023-02-18T01:09:56.891Z,995.94
2023-02-18T01:10:56.891Z,995.92
2023-02-18T01:11:56.862Z,995.90
2023-02-18T01:12:56.834Z,995.86
2023-02-18T01:13:56.832Z,995.95
2023-02-18T01:14:56.829Z,995.90
2023-02-18T01:15:56.904Z,995.94
2023-02-18T01:16:56.820Z,995.96
2023-02-18T01:17:56.785Z,995.97
2023-02-18T01:18:56.762Z,995.95
2023-02-18T01:19:56.774Z,995.99
2023-02-18T01:20:56.848Z,995.99
2023-02-18T01:21:56.727Z,995.98
2023-02-18T01:22:56.710Z,995.99
2023-02-18T01:23:56.693Z,995.90
2023-02-18T01:24:56.692Z,995.93
2023-02-18T01:25:56.715Z,995.97
2023-02-18T01:26:56.665Z,995.90
2023-02-18T01:27:56.652Z,995.89
2023-02-18T01:28:56.636Z,995.91
2023-02-18T01:29:56.704Z,995.89
2023-02-18T01:30:56.695Z,995.83
2023-02-18T01:31:56.648Z,995.79
2023-02-18T01:32:56.595Z,995.85
2023-02-18T01:33:56.588Z,995.77
2023-02-18T01:34:56.557Z,995.78
2023-02-18T01:35:56.572Z,995.77
2023-02-18T01:36:56.552Z,995.76
2023-02-18T01:37:56.579Z,995.77
2023-02-18T01:38:57.322Z,995.71
2023-02-18T01:39:56.502Z,995.65
2023-02-18T01:40:56.512Z,995.61
2023-02-18T01:41:56.467Z,995.66
2023-02-18T01:42:56.449Z,995.76
2023-02-18T01:43:56.458Z,995.77
2023-02-18T01:44:56.415Z,995.71
2023-02-18T01:45:56.450Z,995.66
2023-02-18T01:46:56.471Z,995.67
2023-02-18T01:47:56.386Z,995.67
2023-02-18T01:48:56.358Z,995.64
2023-02-18T01:49:56.361Z,995.76
2023-02-18T01:50:56.378Z,995.72
2023-02-18T01:51:56.326Z,995.72
2023-02-18T01:52:56.306Z,995.70
2023-02-18T01:53:56.330Z,995.71
2023-02-18T01:54:56.293Z,995.74
2023-02-18T01:55:56.306Z,995.69
2023-02-18T01:56:56.412Z,995.68
2023-02-18T01:57:56.249Z,995.71
2023-02-18T01:58:56.330Z,995.58
2023-02-18T01:59:56.241Z,995.65
2023-02-18T02:00:56.239Z,995.65
2023-02-18T02:01:56.333Z,995.57
2023-02-18T02:02:56.177Z,995.57
2023-02-18T02:03:56.172Z,995.57
2023-02-18T02:04:56.175Z,995.60
2023-02-18T02:05:56.902Z,995.50
2023-02-18T02:06:56.178Z,995.57
2023-02-18T02:07:56.162Z,995.59
2023-02-18T02:08:56.099Z,995.66
2023-02-18T02:09:56.112Z,995.51
2023-02-18T02:10:56.075Z,995.57
2023-02-18T02:11:56.098Z,995.49
2023-02-18T02:12:56.057Z,995.43
2023-02-18T02:13:56.066Z,995.48
2023-02-18T02:14:56.026Z,995.44
2023-02-18T02:15:56.029Z,995.44
2023-02-18T02:16:56.033Z,995.40
2023-02-18T02:17:55.988Z,995.41
2023-02-18T02:18:55.986Z,995.36
2023-02-18T02:19:55.965Z,995.43
2023-02-18T02:20:55.980Z,995.38
2023-02-18T02:21:55.975Z,995.37
2023-02-18T02:22:55.921Z,995.32
2023-02-18T02:23:55.909Z,995.32
2023-02-18T02:24:55.905Z,995.35
2023-02-18T02:25:55.881Z,995.33
2023-02-18T02:26:55.891Z,995.30
2023-02-18T02:27:55.880Z,995.23
2023-02-18T02:28:55.832Z,995.26
2023-02-18T02:29:55.976Z,995.17
2023-02-18T02:30:55.849Z,995.22
2023-02-18T02:31:55.887Z,995.20
2023-02-18T02:32:55.791Z,995.25
2023-02-18T02:33:55.770Z,995.21
2023-02-18T02:34:55.783Z,995.32
2023-02-18T02:35:55.746Z,995.29
2023-02-18T02:36:55.751Z,995.28
2023-02-18T02:37:55.735Z,995.25
2023-02-18T02:38:55.757Z,995.28
2023-02-18T02:39:55.699Z,995.25
2023-02-18T02:40:55.703Z,995.20
2023-02-18T02:41:55.712Z,995.26
2023-02-18T02:42:55.678Z,995.25
2023-02-18T02:43:55.679Z,995.25
2023-02-18T02:44:55.657Z,995.21
2023-02-18T02:45:55.688Z,995.12
2023-02-18T02:46:55.643Z,995.08
2023-02-18T02:47:55.597Z,995.02
2023-02-18T02:48:55.575Z,995.04
2023-02-18T02:49:55.576Z,995.04
2023-02-18T02:50:55.556Z,995.05
2023-02-18T02:51:55.694Z,995.07
2023-02-18T02:52:55.541Z,994.97
2023-02-18T02:53:55.590Z,995.05
2023-02-18T02:54:55.550Z,994.93
2023-02-18T02:55:55.493Z,994.86
2023-02-18T02:56:55.508Z,994.89
2023-02-18T02:57:55.490Z,994.87
2023-02-18T02:58:55.447Z,994.82
2023-02-18T02:59:55.437Z,994.86
2023-02-18T03:00:55.475Z,994.85
2023-02-18T03:01:55.452Z,994.70
2023-02-18T03:02:55.427Z,994.70
2023-02-18T03:03:55.407Z,994.74
2023-02-18T03:04:55.365Z,994.72
2023-02-18T03:05:55.362Z,994.72
2023-02-18T03:06:55.385Z,994.70
2023-02-18T03:07:55.354Z,994.59
2023-02-18T03:08:55.330Z,994.48
2023-02-18T03:09:55.317Z,994.52
2023-02-18T03:10:55.285Z,994.49
2023-02-18T03:11:55.315Z,994.50
2023-02-18T03:12:55.272Z,994.48
2023-02-18T03:13:55.255Z,994.41
2023-02-18T03:14:55.244Z,994.35
2023-02-18T03:15:55.250Z,994.34
2023-02-18T03:16:55.317Z,994.37
2023-02-18T03:17:55.214Z,994.31
2023-02-18T03:18:55.185Z,994.42
2023-02-18T03:19:55.191Z,994.38
2023-02-18T03:20:55.181Z,994.35
2023-02-18T03:21:55.179Z,994.33
2023-02-18T03:22:55.122Z,994.29
2023-02-18T03:23:55.149Z,994.27
2023-02-18T03:24:55.126Z,994.28
2023-02-18T03:25:55.099Z,994.18
2023-02-18T03:26:55.132Z,994.19
2023-02-18T03:27:55.064Z,994.14
2023-02-18T03:28:55.078Z,994.20
2023-02-18T03:29:55.052Z,994.21
2023-02-18T03:30:55.044Z,994.27
2023-02-18T03:31:55.157Z,994.24
2023-02-18T03:32:55.016Z,994.16
2023-02-18T03:33:55.000Z,994.16
2023-02-18T03:34:54.994Z,994.17
2023-02-18T03:35:54.964Z,994.11
2023-02-18T03:36:54.997Z,994.16
2023-02-18T03:37:54.934Z,994.19
2023-02-18T03:38:55.596Z,994.16
2023-02-18T03:39:54.912Z,994.09
2023-02-18T03:40:55.092Z,994.06
2023-02-18T03:41:54.918Z,994.08
2023-02-18T03:42:54.890Z,994.07
2023-02-18T03:43:54.855Z,993.98
2023-02-18T03:44:54.853Z,994.04
2023-02-18T03:45:55.330Z,994.00
2023-02-18T03:46:54.882Z,994.03
2023-02-18T03:47:54.809Z,994.01
2023-02-18T03:48:54.818Z,993.98
2023-02-18T03:49:55.567Z,994.02
2023-02-18T03:50:54.785Z,993.95
2023-02-18T03:51:54.862Z,993.92
2023-02-18T03:52:54.742Z,993.98
2023-02-18T03:53:54.762Z,993.99
2023-02-18T03:54:54.712Z,993.97
2023-02-18T03:55:54.729Z,993.84
2023-02-18T03:56:54.721Z,993.99
2023-02-18T03:57:54.690Z,993.99
2023-02-18T03:58:54.667Z,993.98
2023-02-18T03:59:54.651Z,993.98
2023-02-18T04:00:54.682Z,993.98
2023-02-18T04:01:54.659Z,993.97
2023-02-18T04:02:54.661Z,993.94
2023-02-18T04:03:54.712Z,993.82
2023-02-18T04:04:54.588Z,993.92
2023-02-18T04:05:54.572Z,993.87
2023-02-18T04:06:54.604Z,993.95
2023-02-18T04:07:54.548Z,993.97
2023-02-18T04:08:54.537Z,993.79
2023-02-18T04:09:54.508Z,993.83
2023-02-18T04:10:54.505Z,993.97
2023-02-18T04:11:54.514Z,993.88
2023-02-18T04:12:54.476Z,993.86
2023-02-18T04:13:54.457Z,993.91
2023-02-18T04:14:54.485Z,993.86
2023-02-18T04:15:54.436Z,993.88
2023-02-18T04:16:54.566Z,993.90
2023-02-18T04:17:54.429Z,993.87
2023-02-18T04:18:54.407Z,993.78
2023-02-18T04:19:54.396Z,993.85
2023-02-18T04:20:54.366Z,993.83
2023-02-18T04:21:54.385Z,993.85
2023-02-18T04:22:54.357Z,993.81
2023-02-18T04:23:54.376Z,993.77
2023-02-18T04:24:54.319Z,993.76
2023-02-18T04:25:54.295Z,993.72
2023-02-18T04:26:54.398Z,993.71
2023-02-18T04:27:54.279Z,993.76
2023-02-18T04:28:54.267Z,993.76
2023-02-18T04:29:54.261Z,993.70
2023-02-18T04:30:54.328Z,993.71
2023-02-18T04:31:54.279Z,993.58
2023-02-18T04:32:54.215Z,993.63
2023-02-18T04:33:54.209Z,993.57
2023-02-18T04:34:54.189Z,993.57
2023-02-18T04:35:54.169Z,993.60
2023-02-18T04:36:54.264Z,993.56
2023-02-18T04:37:54.143Z,993.58
2023-02-18T04:38:54.144Z,993.52
2023-02-18T04:39:54.124Z,993.48
2023-02-18T04:40:54.103Z,993.45
2023-02-18T04:41:54.129Z,993.47
2023-02-18T04:42:54.090Z,993.46
2023-02-18T04:43:54.062Z,993.54
2023-02-18T04:44:54.062Z,993.47
2023-02-18T04:45:54.072Z,993.44
2023-02-18T04:46:54.069Z,993.44
2023-02-18T04:47:54.028Z,993.38
2023-02-18T04:48:54.098Z,993.38
2023-02-18T04:49:53.982Z,993.44
2023-02-18T04:50:53.973Z,993.45
2023-02-18T04:51:53.991Z,993.44
2023-02-18T04:52:58.314Z,993.33
2023-02-18T04:53:53.933Z,993.43
2023-02-18T04:54:53.936Z,993.33
2023-02-18T04:55:53.949Z,993.34
2023-02-18T04:56:53.920Z,993.38
2023-02-18T04:57:53.973Z,993.30
2023-02-18T04:58:53.874Z,993.30
2023-02-18T04:59:53.844Z,993.44
2023-02-18T05:00:53.968Z,993.37
2023-02-18T05:01:53.863Z,993.45
2023-02-18T05:02:53.817Z,993.33
2023-02-18T05:03:53.853Z,993.23
2023-02-18T05:04:53.820Z,993.27
2023-02-18T05:05:54.548Z,993.33
2023-02-18T05:06:53.843Z,993.26
2023-02-18T05:07:53.752Z,993.32
2023-02-18T05:08:53.756Z,993.18
2023-02-18T05:09:53.736Z,993.08
2023-02-18T05:10:53.709Z,993.11
2023-02-18T05:11:53.731Z,993.00
2023-02-18T05:12:53.696Z,993.05
2023-02-18T05:13:53.667Z,993.06
2023-02-18T05:14:53.660Z,993.28
2023-02-18T05:15:53.714Z,993.02
2023-02-18T05:16:53.637Z,993.09
2023-02-18T05:17:53.649Z,993.08
2023-02-18T05:18:53.634Z,993.15
2023-02-18T05:19:53.605Z,993.12
2023-02-18T05:20:53.590Z,993.19
2023-02-18T05:21:53.568Z,993.15
2023-02-18T05:22:53.608Z,993.18
2023-02-18T05:23:53.554Z,993.10
2023-02-18T05:24:53.536Z,993.14
2023-02-18T05:25:53.509Z,993.16
2023-02-18T05:26:53.524Z,993.11
2023-02-18T05:27:53.526Z,992.90
2023-02-18T05:28:53.476Z,993.09
2023-02-18T05:29:53.532Z,993.01
2023-02-18T05:30:53.521Z,993.10
2023-02-18T05:31:53.595Z,993.01
2023-02-18T05:32:53.462Z,993.09
2023-02-18T05:33:53.416Z,992.97
2023-02-18T05:34:53.462Z,993.19
2023-02-18T05:35:53.386Z,993.12
2023-02-18T05:36:53.591Z,993.14
2023-02-18T05:37:53.384Z,993.08
2023-02-18T05:38:53.347Z,993.07
2023-02-18T05:39:53.326Z,993.01
2023-02-18T05:40:53.332Z,993.00
2023-02-18T05:41:53.327Z,992.79
2023-02-18T05:42:53.317Z,992.84
2023-02-18T05:43:53.267Z,992.87
2023-02-18T05:44:53.388Z,992.98
2023-02-18T05:45:53.275Z,992.89
2023-02-18T05:46:53.247Z,992.80
2023-02-18T05:47:53.287Z,992.89
2023-02-18T05:48:53.228Z,992.99
2023-02-18T05:49:53.389Z,992.91
2023-02-18T05:50:53.307Z,992.89
2023-02-18T05:51:53.211Z,992.88
2023-02-18T05:52:53.214Z,992.86
2023-02-18T05:53:53.148Z,992.87
2023-02-18T05:54:53.162Z,992.77
2023-02-18T05:55:57.256Z,992.75
2023-02-18T05:56:54.254Z,992.72
2023-02-18T05:57:53.482Z,992.72
2023-02-18T05:58:56.459Z,992.73
2023-02-18T05:59:53.107Z,992.52
2023-02-18T06:00:53.791Z,992.67
2023-02-18T06:01:53.140Z,992.67
2023-02-18T06:02:53.334Z,992.63
2023-02-18T06:03:53.176Z,992.62
2023-02-18T06:04:53.075Z,992.72
2023-02-18T06:05:53.105Z,992.64
2023-02-18T06:06:53.092Z,992.59
2023-02-18T06:07:55.212Z,992.52
2023-02-18T06:08:53.016Z,992.55
2023-02-18T06:09:52.926Z,992.47
2023-02-18T06:10:52.904Z,992.47
2023-02-18T06:11:52.884Z,992.48
2023-02-18T06:12:52.898Z,992.48
2023-02-18T06:13:52.885Z,992.44
2023-02-18T06:14:52.825Z,992.45
2023-02-18T06:15:52.833Z,992.45
2023-02-18T06:16:52.804Z,992.44
2023-02-18T06:17:52.807Z,992.39
2023-02-18T06:18:52.766Z,992.48
2023-02-18T06:19:52.909Z,992.33
2023-02-18T06:20:52.746Z,992.38
2023-02-18T06:21:52.724Z,992.32
2023-02-18T06:22:53.555Z,992.40
2023-02-18T06:23:52.809Z,992.34
2023-02-18T06:24:52.686Z,992.30
2023-02-18T06:25:52.811Z,992.37
2023-02-18T06:26:52.669Z,992.28
2023-02-18T06:27:52.673Z,992.30
2023-02-18T06:28:52.738Z,992.32
2023-02-18T06:29:52.620Z,992.31
2023-02-18T06:30:52.613Z,992.28
2023-02-18T06:31:52.673Z,992.33
2023-02-18T06:32:52.603Z,992.24
2023-02-18T06:33:52.598Z,992.38
2023-02-18T06:34:52.551Z,992.20
2023-02-18T06:35:52.538Z,992.16
2023-02-18T06:36:52.549Z,992.33
2023-02-18T06:37:52.539Z,992.31
2023-02-18T06:38:52.489Z,992.37
2023-02-18T06:39:52.496Z,992.25
2023-02-18T06:40:52.471Z,992.29
2023-02-18T06:41:52.499Z,992.23
2023-02-18T06:42:53.505Z,992.16
2023-02-18T06:43:52.430Z,992.17
2023-02-18T06:44:52.409Z,992.17
2023-02-18T06:45:52.417Z,992.12
2023-02-18T06:46:52.498Z,992.08
2023-02-18T06:47:52.398Z,992.11
2023-02-18T06:48:52.364Z,992.07
2023-02-18T06:49:52.352Z,992.01
2023-02-18T06:50:52.367Z,992.07
2023-02-18T06:51:52.457Z,992.02
2023-02-18T06:52:52.578Z,992.08
2023-02-18T06:53:52.446Z,992.09
2023-02-18T06:54:52.290Z,992.11
2023-02-18T06:55:52.282Z,991.98
2023-02-18T06:56:52.477Z,992.00
2023-02-18T06:57:53.208Z,992.01
2023-02-18T06:58:52.226Z,992.02
2023-02-18T06:59:52.217Z,992.09
2023-02-18T07:00:52.339Z,992.16
2023-02-18T07:01:52.188Z,992.12
2023-02-18T07:02:52.222Z,992.12
2023-02-18T07:03:52.481Z,992.14
2023-02-18T07:04:52.262Z,992.18
2023-02-18T07:05:52.276Z,992.07
2023-02-18T07:06:52.132Z,992.22
2023-02-18T07:07:52.135Z,992.11
2023-02-18T07:08:52.095Z,992.10
2023-02-18T07:09:52.295Z,992.21
2023-02-18T07:10:52.289Z,992.13
2023-02-18T07:11:52.273Z,992.13
2023-02-18T07:12:52.087Z,992.13
2023-02-18T07:13:52.059Z,992.02
2023-02-18T07:14:52.102Z,992.11
2023-02-18T07:15:52.120Z,992.06
2023-02-18T07:16:52.195Z,992.16
2023-02-18T07:17:51.995Z,992.13
2023-02-18T07:18:52.140Z,992.12
2023-02-18T07:19:52.125Z,992.04
2023-02-18T07:20:51.941Z,992.07
2023-02-18T07:21:51.921Z,992.09
2023-02-18T07:22:51.957Z,992.12
2023-02-18T07:23:51.909Z,991.98
2023-02-18T07:24:51.956Z,992.10
2023-02-18T07:25:52.469Z,992.25
2023-02-18T07:26:52.032Z,992.27
2023-02-18T07:27:51.891Z,992.18
2023-02-18T07:28:51.863Z,992.16
2023-02-18T07:29:51.813Z,992.18
2023-02-18T07:30:51.986Z,992.02
2023-02-18T07:31:51.910Z,992.04
2023-02-18T07:32:52.996Z,992.00
2023-02-18T07:33:51.777Z,992.05
2023-02-18T07:34:52.070Z,992.03
2023-02-18T07:35:51.877Z,991.99
2023-02-18T07:36:51.994Z,992.00
2023-02-18T07:37:51.978Z,991.89
2023-02-18T07:38:51.703Z,992.00
2023-02-18T07:39:51.882Z,991.86
2023-02-18T07:40:51.673Z,991.92
2023-02-18T07:41:51.902Z,991.90
2023-02-18T07:42:51.676Z,991.87
2023-02-18T07:43:51.892Z,991.91
2023-02-18T07:44:51.648Z,991.88
2023-02-18T07:45:51.761Z,991.80
2023-02-18T07:46:51.763Z,991.87
2023-02-18T07:47:51.724Z,991.91
2023-02-18T07:48:51.663Z,991.98
2023-02-18T07:49:51.674Z,991.90
2023-02-18T07:50:51.665Z,991.87
2023-02-18T07:51:52.368Z,991.97
2023-02-18T07:52:51.827Z,991.85
2023-02-18T07:53:51.505Z,991.81
2023-02-18T07:54:51.512Z,991.78
2023-02-18T07:55:51.529Z,992.01
2023-02-18T07:56:51.672Z,991.82
2023-02-18T07:57:51.763Z,991.78
2023-02-18T07:58:51.451Z,991.84
2023-02-18T07:59:51.435Z,991.84
2023-02-18T08:00:51.892Z,991.92
2023-02-18T08:01:51.661Z,991.82
2023-02-18T08:02:51.674Z,991.85
2023-02-18T08:03:51.513Z,991.89
2023-02-18T08:04:51.379Z,991.92
2023-02-18T08:05:51.641Z,991.95
2023-02-18T08:06:51.322Z,991.96
2023-02-18T08:07:51.343Z,991.83
2023-02-18T08:08:51.313Z,991.85
2023-02-18T08:09:51.373Z,991.82
2023-02-18T08:10:51.274Z,991.73
2023-02-18T08:11:51.463Z,991.86
2023-02-18T08:12:52.084Z,991.86
2023-02-18T08:13:51.262Z,991.86
2023-02-18T08:14:51.233Z,991.85
2023-02-18T08:15:51.275Z,991.92
2023-02-18T08:16:51.335Z,991.84
2023-02-18T08:17:51.316Z,991.99
2023-02-18T08:18:51.252Z,991.90
2023-02-18T08:19:51.158Z,991.86
2023-02-18T08:20:51.799Z,991.87
2023-02-18T08:21:51.308Z,991.89
2023-02-18T08:22:51.334Z,991.91
2023-02-18T08:23:51.311Z,991.87
2023-02-18T08:24:51.101Z,991.97
2023-02-18T08:25:51.249Z,991.83
2023-02-18T08:27:00.262Z,991.91
2023-02-18T08:27:52.268Z,991.84
2023-02-18T08:28:51.169Z,991.73
2023-02-18T08:29:51.073Z,991.80
2023-02-18T08:30:51.063Z,991.88
2023-02-18T08:31:54.770Z,991.80
2023-02-18T08:32:51.032Z,991.86
2023-02-18T08:33:51.003Z,991.76
2023-02-18T08:34:50.972Z,991.95
2023-02-18T08:35:51.002Z,991.82
2023-02-18T08:36:51.006Z,991.82
2023-02-18T08:37:53.638Z,992.02
2023-02-18T08:38:50.949Z,991.85
2023-02-18T08:39:50.913Z,991.74
2023-02-18T08:40:50.908Z,992.01
2023-02-18T08:41:50.880Z,991.85
2023-02-18T08:42:50.955Z,991.82
2023-02-18T08:43:51.014Z,991.68
2023-02-18T08:44:51.739Z,991.69
2023-02-18T08:45:50.994Z,991.69
2023-02-18T08:46:51.120Z,991.71
2023-02-18T08:48:18.417Z,991.54
2023-02-18T08:48:51.807Z,991.65
2023-02-18T08:49:50.777Z,991.76
2023-02-18T08:50:50.799Z,991.73
2023-02-18T08:51:50.748Z,991.79
2023-02-18T08:52:50.762Z,991.75
2023-02-18T08:53:50.752Z,991.76
2023-02-18T08:54:50.707Z,991.73
2023-02-18T08:55:50.686Z,991.77
2023-02-18T08:56:51.439Z,991.98
2023-02-18T08:57:50.680Z,991.70
2023-02-18T08:58:50.676Z,991.78
2023-02-18T08:59:50.646Z,991.81
2023-02-18T09:00:50.622Z,991.61
2023-02-18T09:01:50.616Z,991.62
2023-02-18T09:02:50.598Z,991.88
2023-02-18T09:03:50.713Z,991.68
2023-02-18T09:04:50.565Z,991.75
2023-02-18T09:05:50.570Z,991.64
2023-02-18T09:06:50.851Z,991.67
2023-02-18T09:07:50.561Z,991.50
2023-02-18T09:08:50.552Z,991.52
2023-02-18T09:09:50.520Z,991.53
2023-02-18T09:10:54.665Z,991.58
2023-02-18T09:11:50.489Z,991.59
2023-02-18T09:12:50.488Z,991.78
2023-02-18T09:13:50.755Z,991.57
2023-02-18T09:14:50.436Z,991.65
2023-02-18T09:15:50.450Z,991.72
2023-02-18T09:16:50.454Z,991.60
2023-02-18T09:17:50.404Z,991.72
2023-02-18T09:18:50.437Z,991.80
2023-02-18T09:19:50.380Z,991.90
2023-02-18T09:20:50.354Z,991.85
2023-02-18T09:21:50.348Z,991.83
2023-02-18T09:22:50.322Z,991.78
2023-02-18T09:23:50.349Z,991.88
2023-02-18T09:24:50.303Z,991.94
2023-02-18T09:25:50.392Z,991.89
2023-02-18T09:26:50.271Z,991.82
2023-02-18T09:27:50.269Z,991.99
2023-02-18T09:28:50.298Z,991.92
2023-02-18T09:29:50.258Z,991.83
2023-02-18T09:30:50.275Z,991.87
2023-02-18T09:31:50.304Z,991.68
2023-02-18T09:32:50.230Z,991.69
2023-02-18T09:33:50.221Z,991.65
2023-02-18T09:34:50.160Z,991.89
2023-02-18T09:35:50.189Z,991.72
2023-02-18T09:36:50.184Z,991.60
2023-02-18T09:37:50.140Z,991.60
2023-02-18T09:38:50.476Z,991.57
2023-02-18T09:39:50.109Z,991.52
2023-02-18T09:40:50.094Z,991.56
2023-02-18T09:41:50.083Z,991.60
2023-02-18T09:42:50.128Z,991.60
2023-02-18T09:43:50.168Z,991.61
2023-02-18T09:44:50.821Z,991.34
2023-02-18T09:45:50.721Z,991.42
2023-02-18T09:46:50.177Z,991.49
2023-02-18T09:47:50.024Z,991.58
2023-02-18T09:48:50.065Z,991.40
2023-02-18T09:49:50.187Z,991.51
2023-02-18T09:50:50.097Z,991.50
2023-02-18T09:51:49.947Z,991.48
2023-02-18T09:52:49.931Z,991.37
2023-02-18T09:53:49.946Z,991.34
2023-02-18T09:54:49.922Z,991.33
2023-02-18T09:55:49.930Z,991.40
2023-02-18T09:56:49.869Z,991.45
2023-02-18T09:57:49.875Z,991.36
2023-02-18T09:58:49.892Z,991.28
2023-02-18T09:59:49.925Z,991.31
2023-02-18T10:00:49.838Z,991.44
2023-02-18T10:01:49.837Z,991.43
2023-02-18T10:02:49.809Z,991.66
2023-02-18T10:03:49.818Z,991.41
2023-02-18T10:04:54.419Z,991.41
2023-02-18T10:05:49.778Z,991.51
2023-02-18T10:06:49.800Z,991.42
2023-02-18T10:07:49.824Z,991.45
2023-02-18T10:08:50.362Z,991.52
2023-02-18T10:09:49.798Z,991.42
2023-02-18T10:10:49.815Z,991.51
2023-02-18T10:11:49.687Z,991.43
2023-02-18T10:12:49.877Z,991.64
2023-02-18T10:13:49.687Z,991.42
2023-02-18T10:14:49.650Z,991.44
2023-02-18T10:15:49.773Z,991.54
2023-02-18T10:16:49.607Z,991.36
2023-02-18T10:17:49.611Z,991.54
2023-02-18T10:18:49.863Z,991.56
2023-02-18T10:19:49.713Z,991.60
2023-02-18T10:20:50.238Z,991.58
2023-02-18T10:21:50.524Z,991.74
2023-02-18T10:22:49.530Z,991.47
2023-02-18T10:23:49.689Z,991.41
2023-02-18T10:24:49.737Z,991.37
2023-02-18T10:25:49.626Z,991.43
2023-02-18T10:26:49.477Z,991.47
2023-02-18T10:27:49.779Z,991.53
2023-02-18T10:28:49.622Z,991.44
2023-02-18T10:29:49.458Z,991.39
2023-02-18T10:30:49.564Z,991.70
2023-02-18T10:31:49.513Z,991.39
2023-02-18T10:32:49.659Z,991.49
2023-02-18T10:33:49.428Z,991.34
2023-02-18T10:34:49.380Z,991.35
2023-02-18T10:35:49.573Z,991.33
2023-02-18T10:36:49.646Z,991.52
2023-02-18T10:37:50.143Z,991.56
2023-02-18T10:38:53.029Z,991.63
2023-02-18T10:39:49.905Z,991.78
2023-02-18T10:40:49.396Z,991.95
2023-02-18T10:41:49.550Z,991.71
2023-02-18T10:42:50.167Z,991.72
2023-02-18T10:43:49.305Z,991.44
2023-02-18T10:44:49.257Z,991.43
2023-02-18T10:45:49.249Z,991.65
2023-02-18T10:46:49.359Z,991.55
2023-02-18T10:47:49.480Z,991.51
2023-02-18T10:48:49.257Z,991.48
2023-02-18T10:49:49.237Z,991.66
2023-02-18T10:50:49.167Z,991.60
2023-02-18T10:51:49.154Z,991.57
2023-02-18T10:52:49.138Z,991.58
2023-02-18T10:53:53.477Z,991.67
2023-02-18T10:54:49.117Z,991.69
2023-02-18T10:55:49.885Z,991.47
2023-02-18T10:56:49.103Z,991.63
2023-02-18T10:57:49.076Z,991.52
2023-02-18T10:58:53.320Z,991.55
2023-02-18T10:59:49.062Z,991.72
2023-02-18T11:00:53.317Z,991.64
2023-02-18T11:01:49.072Z,991.65
2023-02-18T11:02:49.005Z,991.85
2023-02-18T11:03:49.055Z,991.63
2023-02-18T11:04:49.057Z,991.59
2023-02-18T11:05:48.981Z,991.66
2023-02-18T11:06:49.178Z,991.67
2023-02-18T11:07:48.937Z,991.70
2023-02-18T11:08:48.957Z,991.61
2023-02-18T11:09:53.226Z,991.53
2023-02-18T11:10:48.974Z,991.65
2023-02-18T11:11:53.637Z,991.53
2023-02-18T11:12:49.895Z,991.60
2023-02-18T11:13:48.902Z,991.39
2023-02-18T11:14:49.652Z,991.66
2023-02-18T11:15:48.907Z,991.71
2023-02-18T11:16:48.812Z,991.51
2023-02-18T11:17:48.851Z,991.51
2023-02-18T11:18:50.664Z,991.59
2023-02-18T11:19:48.781Z,991.62
2023-02-18T11:20:48.762Z,991.67
2023-02-18T11:21:48.758Z,991.59
2023-02-18T11:22:49.511Z,991.66
2023-02-18T11:23:48.731Z,991.81
2023-02-18T11:24:48.783Z,991.71
2023-02-18T11:25:48.702Z,991.81
2023-02-18T11:26:48.711Z,991.65
2023-02-18T11:27:48.691Z,991.61
2023-02-18T11:28:48.675Z,991.68
2023-02-18T11:29:49.001Z,991.57
2023-02-18T11:30:48.972Z,991.63
2023-02-18T11:31:48.711Z,991.52
2023-02-18T11:32:48.599Z,991.58
2023-02-18T11:33:48.593Z,991.54
2023-02-18T11:34:48.611Z,991.59
2023-02-18T11:35:48.580Z,991.57
2023-02-18T11:36:48.558Z,991.50
2023-02-18T11:37:48.551Z,991.56
2023-02-18T11:38:48.860Z,991.62
2023-02-18T11:39:48.557Z,991.59
2023-02-18T11:40:48.507Z,991.54
2023-02-18T11:41:48.748Z,991.65
2023-02-18T11:42:48.477Z,991.62
2023-02-18T11:43:48.480Z,991.60
2023-02-18T11:44:49.250Z,991.56
2023-02-18T11:45:48.440Z,991.60
2023-02-18T11:46:48.454Z,991.58
2023-02-18T11:47:48.418Z,991.61
2023-02-18T11:48:48.420Z,991.66
2023-02-18T11:49:48.420Z,991.62
2023-02-18T11:50:48.372Z,991.66
2023-02-18T11:51:48.364Z,991.51
2023-02-18T11:52:48.370Z,991.65
2023-02-18T11:53:48.346Z,991.56
2023-02-18T11:54:48.351Z,991.61
2023-02-18T11:55:48.342Z,991.50
2023-02-18T11:56:48.640Z,991.64
2023-02-18T11:57:48.290Z,991.81
2023-02-18T11:58:48.275Z,991.64
2023-02-18T11:59:48.286Z,991.65
2023-02-18T12:00:48.255Z,991.52
2023-02-18T12:01:48.252Z,991.54
2023-02-18T12:02:48.619Z,991.65
2023-02-18T12:03:48.208Z,991.61
2023-02-18T12:04:48.268Z,991.57
2023-02-18T12:05:48.176Z,991.59
2023-02-18T12:06:48.175Z,991.79
2023-02-18T12:07:48.152Z,991.64
2023-02-18T12:08:48.356Z,991.57
2023-02-18T12:09:48.264Z,991.68
2023-02-18T12:10:48.127Z,991.44
2023-02-18T12:11:48.118Z,991.72
2023-02-18T12:12:48.405Z,991.70
2023-02-18T12:13:48.074Z,991.48
2023-02-18T12:14:48.099Z,991.66
2023-02-18T12:15:48.045Z,991.44
2023-02-18T12:16:48.091Z,991.54
2023-02-18T12:17:48.024Z,991.64
2023-02-18T12:18:48.149Z,991.56
2023-02-18T12:19:48.187Z,991.51
2023-02-18T12:20:47.985Z,991.52
2023-02-18T12:21:47.989Z,991.55
2023-02-18T12:22:47.997Z,991.66
2023-02-18T12:23:48.580Z,991.61
2023-02-18T12:24:50.383Z,991.68
2023-02-18T12:25:48.315Z,991.66
2023-02-18T12:26:48.105Z,991.55
2023-02-18T12:27:48.013Z,991.57
2023-02-18T12:28:47.901Z,991.55